createdAt,value
2024-04-30T00:00:50.986Z,11.2
2024-04-30T00:15:54.324Z,11.2
2024-04-30T00:30:51.894Z,10.6
2024-04-30T00:45:56.295Z,10.6
2024-04-30T01:00:53.184Z,11.3
2024-04-30T01:15:54.311Z,11.5
2024-04-30T01:30:56.203Z,10.7
2024-04-30T01:45:56.985Z,11.1
2024-04-30T02:00:57.541Z,11.8
2024-04-30T02:15:58.209Z,11.2
2024-04-30T02:30:58.463Z,10.9
2024-04-30T02:46:00.754Z,10.8
2024-04-30T03:01:01.114Z,10.3
2024-04-30T03:16:01.716Z,9.8
2024-04-30T03:31:01.744Z,9.5
2024-04-30T03:46:03.887Z,10.1
2024-04-30T03:56:36.133Z,10.4
2024-04-30T04:11:37.511Z,10.2
2024-04-30T04:26:43.127Z,10.2
2024-04-30T04:41:38.394Z,9.5
2024-04-30T04:56:38.878Z,8.9
2024-04-30T05:11:39.886Z,8.9
2024-04-30T05:26:47.032Z,9.3
2024-04-30T05:41:41.104Z,9.2
2024-04-30T05:56:41.104Z,10.2
2024-04-30T06:11:42.614Z,11
2024-04-30T06:26:42.858Z,11.7
2024-04-30T06:41:43.889Z,12.3
2024-04-30T06:56:43.466Z,12.8
2024-04-30T07:11:44.390Z,13.4
2024-04-30T07:26:44.267Z,14.3
2024-04-30T07:41:46.030Z,14.8
2024-04-30T07:56:45.651Z,15.6
2024-04-30T08:11:47.747Z,16.3
2024-04-30T08:26:48.514Z,17.1
2024-04-30T08:41:51.120Z,17.1
2024-04-30T08:56:48.338Z,18.8
2024-04-30T09:11:50.195Z,19.3
2024-04-30T09:26:50.494Z,19.4
2024-04-30T09:41:52.200Z,20.7
2024-04-30T09:56:51.773Z,21.6
2024-04-30T10:11:52.211Z,22.2
2024-04-30T10:26:53.164Z,22
2024-04-30T10:41:53.846Z,22.2
2024-04-30T10:56:54.170Z,23.6
2024-04-30T11:11:55.432Z,23.4
2024-04-30T11:26:55.537Z,23.9
2024-04-30T11:42:30.949Z,23.3
2024-04-30T11:56:57.589Z,23.3
2024-04-30T12:11:57.217Z,24.9
2024-04-30T12:26:59.668Z,25.6
2024-04-30T12:41:58.919Z,26.9
2024-04-30T12:57:00.191Z,26.8
2024-04-30T13:11:59.848Z,27
2024-04-30T13:27:01.172Z,27.7
2024-04-30T13:42:01.823Z,27.1
2024-04-30T13:57:01.929Z,26
2024-04-30T14:12:03.423Z,25.2
2024-04-30T14:27:05.511Z,25.2
2024-04-30T14:42:05.285Z,24.5
2024-04-30T14:57:05.873Z,24.4
2024-04-30T15:12:06.219Z,24.6
2024-04-30T15:27:08.143Z,24.4
2024-04-30T15:42:12.536Z,24.6
2024-04-30T15:57:11.626Z,24.6
2024-04-30T16:12:08.913Z,24.3
2024-04-30T16:27:08.863Z,24.4
2024-04-30T16:42:12.739Z,24.4
2024-04-30T16:57:11.789Z,23.7
2024-04-30T17:12:11.920Z,23.4
2024-04-30T17:27:11.887Z,23
2024-04-30T17:42:12.113Z,22.5
2024-04-30T17:57:14.111Z,22.5
2024-04-30T18:12:13.857Z,21.4
2024-04-30T18:27:15.087Z,20.9
2024-04-30T18:42:15.369Z,20.4
2024-04-30T18:57:23.732Z,20.4
2024-04-30T19:27:32.940Z,19.9
2024-04-30T19:42:59.457Z,18.7
2024-04-30T19:57:28.387Z,17.6
2024-04-30T20:12:19.263Z,16.2
2024-04-30T20:27:20.072Z,15.9
2024-04-30T20:42:20.486Z,16
2024-04-30T20:57:21.416Z,15.2
2024-04-30T21:12:22.303Z,15
2024-04-30T21:27:27.725Z,14.4
2024-04-30T21:42:22.655Z,14.8
2024-04-30T21:57:23.929Z,14.8
2024-04-30T22:00:39.393Z,13.9
2024-04-30T22:15:37.094Z,13.9
2024-04-30T22:30:37.430Z,13.9
2024-04-30T22:45:40.982Z,13.3
2024-04-30T23:15:45.932Z,12.7
2024-04-30T23:30:51.491Z,12.7
2024-04-30T23:45:55.066Z,12.9
